Velovelo
Português Nederlands 日本語 中文
Español English čeština slovenčina
русский italiano polski norsk
français Deutsch svenska عربي
 
 poprzednia strona
 Wyślij znajomemu
 Aby wydrukować
 ---> La Marmotte 2012 : du 5001ème au 6037ème

Cl...Dos.Nom PrénomCat.C.cTemps..Moy
5001 6042 TERRYN WARD H 30 - 39 1462 10:23:40 15.65
5002 840 GUILLET YVES H 50 - 59 856 10:23:48 15.83
5003 2192 VAN EIJSDEN PIETER H 30 - 39 1463 10:23:51 15.80
5004 3727 MCGILL ROLAND H 40 - 49 1850 10:23:58 15.58
5005 2813 SLINGERLAND PETER H 40 - 49 1851 10:23:59 15.75
5006 7100 MARTENS HENK H 60 - 66 170 10:24:12 15.33
5007 2713 Van Den EVENTUIN Andre H 40 - 49 1852 10:24:13 15.17
5008 7538 DEVROE DIRK H 50 - 59 857 10:24:18 15.53
5009 6722 DEWIS PETER H 50 - 59 858 10:24:21 15.64
5010 5739 PEDERSEN CASPER H 30 - 39 1464 10:24:22 15.35
5011 3294 WEISS ROBERT H 40 - 49 1853 10:24:30 15.54
5012 4012 BOWMAN RICHARD H 30 - 39 1465 10:24:41 14.90
5013 4221 BIDDLE RICHARD H 40 - 49 1854 10:24:51 15.66
5014 2612 MYNHEER GABRIEL H 18 - 29 494 10:24:52 15.57
5015 7055 WHEELER HENRY H 18 - 29 495 10:24:55 15.83
5016 4999 OTTENHOFF ERNST-JAN H 18 - 29 496 10:24:59 15.43
5017 7748 DE SWERT STEVE H 30 - 39 1466 10:25:00 15.81
5018 6891 CROWLEY STEPHEN H 30 - 39 1467 10:25:02 15.63
5019 4745 TER LINDE JAN H 40 - 49 1855 10:25:08 15.70
5020 464 BOLT JOS H 40 - 49 1856 10:25:08 15.58
5021 2613 MYNHEER REUBEN H 18 - 29 497 10:25:09 15.57
5022 7023 SALEEM DAVID H 50 - 59 859 10:25:09 15.66
5023 5175 BORG BRIAN H 40 - 49 1857 10:25:21 15.81
5024 7421 COOK SIMON H 40 - 49 1858 10:25:21 15.58
5025 2957 SIECKMEIJER XAVIER H 18 - 29 498 10:25:28 15.61
5026 2549 RASMUSSEN Peter Dalby H 40 - 49 1859 10:25:38 15.39
5027 2548 JOHANSEN NIELS BUCH H 50 - 59 860 10:25:38 15.39
5028 3315 KELLY ALAN H 40 - 49 1860 10:25:40 15.71
5029 2109 PULVERMULLER CORINE F 18 - 34 47 10:25:41 15.62
5030 2805 DUVIVIER FRANCIS H 30 - 39 1468 10:25:49 15.52
5031 6685 VERBOVEN PIET H 50 - 59 861 10:25:53 15.34
5032 5591 BEAMONTE TOMAS H 18 - 29 499 10:25:56 15.58
5033 2183 LETH LARS H 50 - 59 862 10:25:58 15.68
5034 6494 LOUGH RICHARD H 40 - 49 1861 10:26:03 15.57
5035 3313 MORRIS JUSTIN H 40 - 49 1862 10:26:26 15.45
5036 5933 MEGENS WILLEM H 30 - 39 1469 10:26:27 15.48
5037 2696 SCHMIDT JAN H 40 - 49 1863 10:26:33 15.74
5038 804 OLSEN JAN RECKWEG H 40 - 49 1864 10:26:35 15.70
5039 3404 DEGLIN KRIS H 30 - 39 1470 10:26:35 15.70
5040 7814 MICKEL ANDREW H 30 - 39 1471 10:26:37 15.41
5041 3204 PAUWELS POL H 50 - 59 863 10:26:49 15.52
5042 2342 DEMICHELIS VALTER H 50 - 59 864 10:26:51 15.35
5043 5430 RISALITI RICCARDO H 60 - 66 171 10:27:03 15.68
5044 6858 MADSEN STEEN ULRIK H 50 - 59 865 10:27:13 15.55
5045 7418 GIELEN JOHAN H 40 - 49 1865 10:27:13 15.47
5046 9929 HAWORTH HELEN F 35 - 49 75 10:27:14 15.45
5047 381 OPIE JUSTIN H 40 - 49 1866 10:27:16 15.62
5048 5462 MELLONCELLI GIANFRANCO H 60 - 66 172 10:27:21 15.62
5049 2211 APPEL MICHAEL H 30 - 39 1472 10:27:26 15.55
5050 7047 STALGIS MARTIN H 18 - 29 500 10:27:28 15.51
5051 2996 UNLU CAGDAS H 30 - 39 1473 10:27:30 15.73
5052 7285 DOYLE JOHN H 30 - 39 1474 10:27:35 15.81
5053 5617 FORTIN JEAN YVES H 40 - 49 1867 10:27:39 15.60
5054 2551 YDE JOHANNES H 60 - 66 173 10:27:42 15.63
5055 2739 VENEMAN HENK H 60 - 66 174 10:27:43 15.60
5056 1797 ALGOET GUIDO H 50 - 59 866 10:27:47 15.62
5057 7132 GEENS VERONIQUE F 18 - 34 48 10:27:51 15.42
5058 2550 HVASHOJ TORBEN H 60 - 66 175 10:27:58 15.63
5059 2507 ANDERSEN KLAUS NORDVIG H 40 - 49 1868 10:28:00 15.48
5060 6258 SPENSER DAVID H 30 - 39 1475 10:28:07 15.56
5061 3827 BRUNSGAARD POUL H 40 - 49 1869 10:28:21 15.70
5062 1678 VAN DER SALM ESTHER F 35 - 49 76 10:28:22 15.24
5063 6992 CHIGOT PIERRE-YVES H 50 - 59 867 10:28:23 14.84
5064 1794 WIJNKER CHARLES H 40 - 49 1870 10:28:24 15.63
5065 7049 PAVARD Louis-EMMANUEL H 40 - 49 1871 10:28:25 14.84
5066 7127 LEGEAI MANUEL H 50 - 59 868 10:28:25 14.84
5067 4174 CURRIE DAVID H 50 - 59 869 10:28:25 15.58
5068 3580 LINDSTROM ANDREAS H 30 - 39 1476 10:28:30 15.40
5069 6072 AMBROSIUS KAI H 50 - 59 870 10:28:32 15.43
5070 720 BORRESEN ANDREAS H 30 - 39 1477 10:28:42 15.73
5071 5186 GRAABECK FLEMMING H 40 - 49 1872 10:28:45 15.67
5072 6324 WALTON LLOYD H 18 - 29 501 10:28:49 15.45
5073 4832 VALLEN MAX H 18 - 29 502 10:28:49 15.60
5074 2441 RASMUSSEN MICHAEL H 40 - 49 1873 10:28:49 15.61
5075 4842 AAN DE BOOM NIEK H 18 - 29 503 10:28:50 15.60
5076 1460 SLADE SIMON H 40 - 49 1874 10:28:53 15.53
5077 6757 MCLAUGHLIN ANDREW H 40 - 49 1875 10:28:56 15.40
5078 826 THORNBJERG CLAUS H 40 - 49 1876 10:29:02 15.22
5079 731 AEROE PETER H 50 - 59 871 10:29:03 15.58
5080 2364 ADAMS GERARD H 50 - 59 872 10:29:12 15.70
5081 329 HAUG JOHANNES H 50 - 59 873 10:29:13 15.49
5082 6144 MINADEO ERIC H 40 - 49 1877 10:29:14 15.31
5083 7587  ? ? Cat ? 10 10:29:21 15.68
5084 9952 HARTMAN EVELINE F 50 ET + 22 10:29:27 15.29
5085 9953 HARTMAN WILLEM H 60 - 66 176 10:29:29 15.29
5086 5596 BEAMONTE COSME H 18 - 29 504 10:29:31 15.49
5087 5019 LIEBRAND TOM H 30 - 39 1478 10:29:35 15.62
5088 1739 VAN WINDEN MARCO H 50 - 59 874 10:29:40 15.63
5089 7084 WOUTERS GEERT H 40 - 49 1878 10:29:43 15.79
5090 5069 BRANTSMA JURRE H 30 - 39 1479 10:29:46 15.38
5091 1769 MANDEY MARTIJN H 30 - 39 1480 10:29:47 15.61
5092 3285 WINKWORTH NEIL H 18 - 29 505 10:29:52 15.32
5093 2464 CARRE JEROME H 30 - 39 1481 10:29:58 15.46
5094 2938 SCHRAUWEN JAN H 60 - 66 177 10:30:10 15.48
5095 5002 WAIJENBERG MARCEL H 40 - 49 1879 10:30:21 15.24
5096 3546 HAUGLUND NICKI H 30 - 39 1482 10:30:26 15.38
5097 6240 YOUSUF ALI H 40 - 49 1880 10:30:27 15.53
5098 6459 BADER ULI H 40 - 49 1881 10:30:27 15.52
5099 7610 VERSCHUEREN ERIC H 50 - 59 875 10:30:29 15.81
5100 3405 MAES FILIP H 40 - 49 1882 10:30:30 15.78
5101 4354 POUWELS STEVE H 30 - 39 1483 10:30:37 15.48
5102 3762 EMPSON GARY H 40 - 49 1883 10:30:40 15.57
5103 6629 WALLENIUS TORBEN H 40 - 49 1884 10:30:41 15.56
5104 7712 VAN BECKHOVEN HENK H 50 - 59 876 10:30:42 15.56
5105 6420 ELGAARD JORGEN H 60 - 66 178 10:30:43 15.22
5106 6954 NIGGENABER OLIVIER H 40 - 49 1885 10:30:57 15.38
5107 7571 HELLMAN BRUCE H 30 - 39 1484 10:31:01 15.15
5108 3986 LARSEN ALLAN H 40 - 49 1886 10:31:03 15.10
5109 5712 MORTON ROBERT H 40 - 49 1887 10:31:03 15.58
5110 3763 MORRIS RICHARD H 40 - 49 1888 10:31:04 15.52
5111 6015 KEENE ANDREW H 30 - 39 1485 10:31:05 15.62
5112 3567 MOLLER JENS PETER H 50 - 59 877 10:31:09 15.49
5113 6209 MEEUS CHRIS H 40 - 49 1889 10:31:15 15.59
5114 3357 MIFLIN ADRIAN H 50 - 59 878 10:31:20 15.57
5115 5774 WEBER ROLAND H 50 - 59 879 10:31:24 15.31
5116 2520 SORENSEN CLAUS H 40 - 49 1890 10:31:37 15.64
5117 522 KAMPEN FRANK H 30 - 39 1486 10:31:37 15.47
5118 643 RANKENBERG HENK H 60 - 66 179 10:31:40 15.02
5119 6701 REITSMA FREDERIK H 18 - 29 506 10:31:40 15.66
5120 415 DINGJAN RON H 50 - 59 880 10:31:48 15.61
5121 3910 BONOMETTI ALESSANDRO H 40 - 49 1891 10:31:56 15.52
5122 1868 HERMANN JAKOB H 40 - 49 1892 10:31:58 15.47
5123 2490 VAN ROSSEM KRIS H 40 - 49 1893 10:32:00 15.45
5124 3532 KRAMSHOJ MADS H 50 - 59 881 10:32:00 15.46
5125 6456 GRUJCIC TAJANA F 18 - 34 49 10:32:00 15.40
5126 2532 CHRISTIANSEN John Smidt H 50 - 59 882 10:32:01 15.59
5127 3131 GOOSSENS MAARTEN H 30 - 39 1487 10:32:04 15.43
5128 2467 CARRE LAURENT H 50 - 59 883 10:32:05 15.47
5129 5740 ANDERSEN OWE H 30 - 39 1488 10:32:11 15.52
5130 5470 TENTARELLI IVAN H 40 - 49 1894 10:32:14 15.29
5131 3916 CRUGNOLA DANIELE H 50 - 59 884 10:32:16 15.40
5132 4597 LAM ROGIER H 30 - 39 1489 10:32:20 15.46
5133 1397 HANSEN OLE THYE H 60 - 66 180 10:32:22 15.29
5134 7434 MELCHIORSEN Claus Rix H 40 - 49 1895 10:32:24 15.15
5135 3272 MASON MARK H 40 - 49 1896 10:32:30 15.29
5136 1946 BENTLEY ROBERT H 40 - 49 1897 10:32:38 15.32
5137 4892 WELLAND ROB H 40 - 49 1898 10:32:43 15.59
5138 578 YOUNG JAMIE H 30 - 39 1490 10:32:43 15.55
5139 577 GRAHAM RANALD H 30 - 39 1491 10:32:45 15.55
5140 3637 DAVIDSON MARK H 40 - 49 1899 10:32:50 15.49
5141 4665 DESCAMPS PHILIPPE H 40 - 49 1900 10:32:52 15.18
5142 6808 SÃ NCHEZ BENET JORDI H 40 - 49 1901 10:32:53 15.10
5143 2468 BARRINGTON DANIEL H 40 - 49 1902 10:32:54 15.25
5144 4761 VANDERHEYDEN TOM H 30 - 39 1492 10:32:57 15.74
5145 2531 ANDERSEN SOREN RAHBEK H 30 - 39 1493 10:32:59 15.30
5146 4620 BISLETH OLE H 50 - 59 885 10:33:17 15.34
5147 2638 HENDERSON JOHN H 50 - 59 886 10:33:18 15.29
5148 7300 D AUBIOUL PIETER H 18 - 29 507 10:33:23 15.39
5149 4855 VAN ENGELAND FRANS H 50 - 59 887 10:33:26 15.17
5150 1869 RASMUSSEN MORTEN H 30 - 39 1494 10:33:30 15.61
5151 1955 HAMMARSTROM TORSTEN H 50 - 59 888 10:33:33 15.34
5152 4692 VIAENE RONNY H 40 - 49 1903 10:33:37 15.65
5153 5402 IRMING JAN ERIK H 50 - 59 889 10:33:48 15.27
5154 6546 WEATHERHOGG DEREK H 50 - 59 890 10:33:49 14.82
5155 3203 PAUWELS BRAM H 30 - 39 1495 10:33:50 15.52
5156 7046 BOYLE ANDREW H 30 - 39 1496 10:33:55 15.36
5157 3625 HAMMARSTROM TOMAS H 18 - 29 508 10:33:55 15.33
5158 3483 SORBA STEVE H 40 - 49 1904 10:34:01 15.15
5159 3823 JOHANNESSEN THOMAS H 40 - 49 1905 10:34:13 15.54
5160 2703 NELISSEN ROLAND H 50 - 59 891 10:34:14 15.34
5161 3488 TODD ALLAN H 40 - 49 1906 10:34:14 15.31
5162 5017 MEIJER PETER H 50 - 59 892 10:34:17 15.07
5163 5050 TOUSSAINT ROLAND H 40 - 49 1907 10:34:17 15.55
5164 1983 PERCHARD HILARY H 30 - 39 1497 10:34:20 15.49
5165 1860 HELBRANDT JESPER H 40 - 49 1908 10:34:24 15.56
5166 5379 LARSEN JOERGEN JANNERUP H 67 ET + 20 10:34:30 15.31
5167 2581 VAN BINDSBERGER WILLI H 50 - 59 893 10:34:31 14.91
5168 5291 STROOPER ERIK H 40 - 49 1909 10:34:35 15.48
5169 6252 SAYNER ANDY H 40 - 49 1910 10:34:37 15.03
5170 3779 HANSEN PETER KRISTIAN H 60 - 66 181 10:34:39 15.37
5171 7495 Van SCHARRENBURG Wilmar H 50 - 59 894 10:34:46 15.16
5172 1296 SIC JACQUES H 40 - 49 1911 10:34:53 15.54
5173 6905 SOELLING JACOB H 18 - 29 509 10:34:53 15.24
5174 4776 BRANDSMA HANS H 50 - 59 895 10:34:57 15.07
5175 1732 SCHOLTE WUBBO H 50 - 59 896 10:34:59 15.11
5176 3879 ROBL LARS CHRISTIAN H 50 - 59 897 10:35:00 15.49
5177 3780 NIELSEN MICHAEL H 40 - 49 1912 10:35:06 15.37
5178 5315 KRUGER KLAUS KONGSTED H 40 - 49 1913 10:35:15 15.38
5179 7129 DE WIT MARC H 50 - 59 898 10:35:26 15.35
5180 6360 WUNNING-FRANK RALF H 40 - 49 1914 10:35:31 15.02
5181 5376 LUNDSGAARD NIELS Erik H 30 - 39 1498 10:35:32 15.34
5182 9970 STOCKMAN STEVEN H 30 - 39 1499 10:35:34 15.31
5183 1948 STOREY DUNCAN H 40 - 49 1915 10:35:36 15.32
5184 6942 PEDERSEN POUL BAK H 50 - 59 899 10:35:37 15.44
5185 1958 VISQUERT PLA MANUEL H 50 - 59 900 10:35:39 15.10
5186 4371 BRENDONCK MARC H 50 - 59 901 10:35:43 15.31
5187 3611 GARRETT SCOTT H 40 - 49 1916 10:35:47 15.46
5188 7681 PLOUMEN MARCEL H 40 - 49 1917 10:35:47 15.39
5189 5428 BALDI CARLO H 50 - 59 902 10:35:58 15.31
5190 7262 BOVEN GEERT H 50 - 59 903 10:36:03 14.90
5191 5745 DE LEEUW LUC H 40 - 49 1918 10:36:04 15.14
5192 3025 VERSTEEG CEES H 60 - 66 182 10:36:08 14.85
5193 2473 KVIST BRIAN H 30 - 39 1500 10:36:15 15.49
5194 3286 NORTH SIMON H 50 - 59 904 10:36:17 15.28
5195 3169 NIELSEN THOMAS H 30 - 39 1501 10:36:44 14.92
5196 5544 VANDAELE PATRICK H 40 - 49 1919 10:37:03 15.12
5197 7399 ESTELLER Sanz Santiago H 30 - 39 1502 10:37:11 15.39
5198 4621 REHER OLE H 50 - 59 905 10:37:12 15.32
5199 6663 WAUTERS NADINE F 35 - 49 77 10:37:20 14.59
5200 7234 WIELS PETER H 40 - 49 1920 10:37:22 15.31
5201 379 WHYTE STUART H 40 - 49 1921 10:37:30 15.43
5202 3518 SCOREY WILLIAM H 30 - 39 1503 10:37:31 15.27
5203 2593 HEBBRECHT GRETA F 35 - 49 78 10:37:34 15.30
5204 2993 CORTHOUT TOM H 30 - 39 1504 10:37:43 15.41
5205 3016 BORST PAUL H 50 - 59 906 10:37:54 15.12
5206 6952 ORTON PAUL H 40 - 49 1922 10:38:00 15.15
5207 4139 GARCIA JUAN H 60 - 66 183 10:38:00 15.31
5208 2627 WILSON CHRIS H 30 - 39 1505 10:38:06 15.09
5209 4835 SLOTMAN FRANK H 18 - 29 510 10:38:20 15.20
5210 5023 BUSSCHERS GERARD H 50 - 59 907 10:38:23 15.40
5211 6199 RASMUSSEN ARNE H 50 - 59 908 10:38:24 15.15
5212 5714 HOLLO IMRE H 40 - 49 1923 10:38:26 15.24
5213 7169 CONRAD JEAN MARC H 50 - 59 909 10:38:30 15.07
5214 7629 CLERINX ROBRECHT H 18 - 29 511 10:38:30 14.45
5215 5285 BIELAS R.R.A. H 30 - 39 1506 10:38:51 15.25
5216 3517 SCOREY ANDREW H 18 - 29 512 10:38:59 15.25
5217 4047 Schollert Hansen Lars Erik H 40 - 49 1924 10:39:27 15.25
5218 7027 HERMANS DIRK H 50 - 59 910 10:39:43 15.27
5219 468 DE RUIJTER FRANS H 40 - 49 1925 10:39:45 15.25
5220 2512 SALL DAVID H 30 - 39 1507 10:39:55 15.21
5221 7774 PAGNIER THIERRY H 40 - 49 1926 10:39:59 15.34
5222 6609 SKAFDRUP KJELD H 40 - 49 1927 10:40:14 15.15
5223 3304 EGAN SARAH F 18 - 34 50 10:40:20 15.01
5224 6856 ARNES SKAFDRUP H 40 - 49 1928 10:40:21 15.15
5225 3676 RASMUSSEN KLAUS KRISTIAN H 40 - 49 1929 10:40:22 15.39
5226 326 VANDENDEREN JURGEN H 30 - 39 1508 10:40:22 15.17
5227 7489 SAMUEL HELEN F 18 - 34 51 10:40:28 15.06
5228 3467 KOSTOLNY MARTIN H 40 - 49 1930 10:40:30 14.79
5229 3641 HAMMOND MARK H 40 - 49 1931 10:40:41 15.16
5230 7287 INGEMANN JOHANSEN Carsten H 30 - 39 1509 10:40:42 14.85
5231 6218 VAN SON NICK H 40 - 49 1932 10:40:50 14.62
5232 1841 BOLVIG RENE H 50 - 59 911 10:41:05 15.32
5233 4207 TARIN CATHERINE F 35 - 49 79 10:41:06 15.20
5234 8015 WILLEM ALAIN H 50 - 59 912 10:41:15 15.18
5235 3283 GROVES ALISTAIR H 18 - 29 513 10:41:16 15.23
5236 5558 GOLLAN ANDREW CAT ? 2 10:41:21 14.91
5237 3726 CLARK GILES H 40 - 49 1933 10:41:30 15.29
5238 3012 ANDES MAGDA F 35 - 49 80 10:41:31 14.97
5239 3072 VAN DE REE WIJP H 50 - 59 913 10:41:33 15.19
5240 5980 OCONNELL IAN H 18 - 29 514 10:41:34 15.43
5241 4658 DESCAMPS LUC H 40 - 49 1934 10:41:38 15.18
5242 7461 HOFSTEE NIELS H 18 - 29 515 10:41:46 15.23
5243 5905 DUNLEA MARK H 40 - 49 1935 10:41:46 15.02
5244 723 TRELDAL TORBEN H 60 - 66 184 10:41:53 15.37
5245 3043 BOON HENDRIKUS H 50 - 59 914 10:41:53 15.03
5246 2730 VAN SUMMEREN BERT H 60 - 66 185 10:41:59 15.15
5247 3632 MCOLL DAVID H 40 - 49 1936 10:42:05 15.36
5248 2191 ELVERS BAS H 40 - 49 1937 10:42:05 15.41
5249 7699 PUIG BALAGUER JAUME H 50 - 59 915 10:42:08 15.22
5250 7700 BELENGUER DOMENECH Jaume H 40 - 49 1938 10:42:10 15.22
5251 518 TEMPEL JAN H 40 - 49 1939 10:42:16 15.19
5252 369 Hulzebos & Alers Johan & Erwin TANDEM 2 10:42:17 15.15
5253 3115 SCHOUTEN JEROEN H 30 - 39 1510 10:42:17 15.14
5254 5304 VANDERBEKEN JEAN-PIERRE H 50 - 59 916 10:42:26 15.34
5255 4809 DAMEN ROEL H 30 - 39 1511 10:42:29 15.23
5256 2491 Millan Guerrero Maria Dolores F 35 - 49 81 10:42:33 15.20
5257 5346 BRUN PETER H 50 - 59 917 10:42:45 14.75
5258 4256 GRANT STRETCH H 40 - 49 1940 10:42:49 14.91
5259 1632 VAN DER KOLK BRAM H 30 - 39 1512 10:42:50 15.47
5260 2209 MATHIESEN TORBEN H 40 - 49 1941 10:42:57 15.19
5261 2796 PASTINK HENDRIK H 30 - 39 1513 10:42:58 15.20
5262 3653 PUGH CHRIS H 50 - 59 918 10:43:00 15.22
5263 3504 COLLEY TEILO H 50 - 59 919 10:43:10 15.04
5264 3984 LINDHOLT LAU H 50 - 59 920 10:43:14 14.96
5265 5367 BILLESOELLE SOEREN H 50 - 59 921 10:43:15 14.96
5266 2016 CARTIER ERIC ROBERT H 50 - 59 922 10:43:16 15.27
5267 7746 DE SCHUTTER BART H 30 - 39 1514 10:43:20 14.91
5268 6707 BELLIDO CLAUSELL JOSE LUIS H 40 - 49 1942 10:43:23 15.22
5269 6708 TARREGA TORIBIO JESUS MARIA H 40 - 49 1943 10:43:30 15.22
5270 6710 AGUSTI AGUSTI MANUEL H 50 - 59 923 10:43:30 15.22
5271 4373 KARSTEN HANSEN H 40 - 49 1944 10:43:34 14.91
5272 6496 JENSEN UFFE H 30 - 39 1515 10:43:39 14.90
5273 4446 AERTS THIERRY H 30 - 39 1516 10:43:52 15.29
5274 6706 CASAN CARCELLER Domingo H 40 - 49 1945 10:44:05 15.22
5275 3721 SOERENEN MICHAEL G. H 50 - 59 924 10:44:15 15.19
5276 1667 VAN WALSEM MICHIEL H 50 - 59 925 10:44:17 14.88
5277 3041 SLOVEN PAUL H 40 - 49 1946 10:44:17 15.12
5278 2716 TEMMERMAN WALTER H 50 - 59 926 10:44:20 15.41
5279 4366 ROHDE MARTIN H 50 - 59 927 10:44:21 15.09
5280 5985 OCONNOR DONALL H 40 - 49 1947 10:44:25 14.44
5281 3626 WEBB ALASTAIR H 50 - 59 928 10:44:39 14.96
5282 7757 VANRENTERGHEM Roeland H 30 - 39 1517 10:44:42 15.03
5283 5051 GIELING MAIKE H 18 - 29 516 10:44:45 15.26
5284 6294 CHATAIN FREDERIC H 40 - 49 1948 10:45:00 15.30
5285 5915 HORN RICHARD H 40 - 49 1949 10:45:04 15.02
5286 6328 POELMANS JAN H 60 - 66 186 10:45:12 15.15
5287 4798 SWINNEN MARLEEN F 35 - 49 82 10:45:14 14.86
5288 2780 VAN OUDENAARDE RINUS H 60 - 66 187 10:45:17 15.08
5289 3715 OLSEN SOEREN H 67 ET + 21 10:45:33 15.17
5290 6093 WILLIAMS LAURA F 35 - 49 83 10:45:40 15.03
5291 4571 DANIELSEN JOHN H 30 - 39 1518 10:45:41 15.22
5292 5676 PEETERS TOM H 40 - 49 1950 10:45:41 15.05
5293 7701 MARTINEZ JACINTO JOSE H 40 - 49 1951 10:45:50 15.22
5294 5140 NIELSEN SOREN H 50 - 59 929 10:45:52 14.96
5295 7119 DE VRIES JACCO H 40 - 49 1952 10:45:59 15.26
5296 6161 GUERIN GUILLAUME H 30 - 39 1519 10:46:09 15.39
5297 1359 ENLUND TEO H 50 - 59 930 10:46:10 15.32
5298 1960 MARTINEZ MIRALES ENRIQUE H 50 - 59 931 10:46:21 15.10
5299 6645 MOSTERT JOSEPH H 60 - 66 188 10:46:24 15.04
5300 7667 VATRIQUANT OLIVIER H 50 - 59 932 10:46:25 15.08
5301 1343 VAN BENNEKOM JAN H 50 - 59 933 10:46:30 14.96
5302 2959 STAPEL FRED H 40 - 49 1953 10:46:31 15.37
5303 3992 KOLIND MADS H 40 - 49 1954 10:46:33 14.95
5304 4409 BELLING GIL H 30 - 39 1520 10:46:58 14.92
5305 6075 MIDDLETON JULIAN H 40 - 49 1955 10:47:00 15.21
5306 5312 KRISTIANSEN JOHN D. H 50 - 59 934 10:47:03 14.97
5307 7361 ANTONI RODRIGUEZ Aparicio H 40 - 49 1956 10:47:14 15.14
5308 4934 VAN DRUENEN MATTIJS H 30 - 39 1521 10:47:23 15.02
5309 3835 TOFT PETER HOJ H 50 - 59 935 10:47:27 14.99
5310 2365 SKOVMAND NIELS H 40 - 49 1957 10:47:31 15.10
5311 4370 ANDERSSON JOHN-Erik H 50 - 59 936 10:47:32 14.97
5312 2047 BAEYENS INGMAR H 30 - 39 1522 10:47:37 15.25
5313 7378 ENGELS FRANCIS H 50 - 59 937 10:47:43 15.14
5314 5557 PUTZ PATRICK H 30 - 39 1523 10:47:52 15.03
5315 2029 LABBÉ JEAN JACQUES H 50 - 59 938 10:48:02 15.12
5316 6275 MAUDOUX MIGUEL H 50 - 59 939 10:48:06 14.99
5317 5796 KONDRUP ANDERS H 50 - 59 940 10:48:22 15.12
5318 4662 DAMS LARS H 30 - 39 1524 10:48:26 14.80
5319 7626 ENGELS ROBIN H 18 - 29 517 10:48:26 15.14
5320 6034 VANHOLE CHRISTOPHE H 40 - 49 1958 10:48:35 14.87
5321 3846 GRIBSKJOLD KASPER H 40 - 49 1959 10:48:37 15.10
5322 4328 BORREMANS ANDRE H 40 - 49 1960 10:48:47 15.06
5323 3280 HERON IAIN H 30 - 39 1525 10:48:50 14.92
5324 3600 TARGETT LEW H 60 - 66 189 10:48:51 15.14
5325 7450 Van SLOCHTEREN Roeland H 18 - 29 518 10:48:58 15.15
5326 7716 VISSER WIM H 40 - 49 1961 10:48:59 15.34
5327 1557 PAPE BENOIT H 18 - 29 519 10:49:10 15.34
5328 5248 SMART SIMON H 30 - 39 1526 10:49:12 14.61
5329 7743 HEBINGER CHRISTIAN H 50 - 59 941 10:49:16 14.60
5330 2853 WILTINK COR H 50 - 59 942 10:49:19 15.07
5331 6055 MIDDLETON CHARLES H 50 - 59 943 10:49:25 15.17
5332 6085 XAVIER ODENA TORRENT H 30 - 39 1527 10:49:32 14.93
5333 803 NYGAARD JAN H 40 - 49 1962 10:49:35 15.00
5334 7480 LUC LUC H 40 - 49 1963 10:49:37 14.68
5335 4210 DRUGMAND LAURENT H 30 - 39 1528 10:49:39 14.77
5336 7363 MIQUEL VIU GONZALEZ H 18 - 29 520 10:49:40 14.93
5337 5484 OESTERGAARD MORTEN H 40 - 49 1964 10:49:42 14.77
5338 6758 ROBERTSON IAN H 50 - 59 944 10:49:52 14.98
5339 4381 MOLLER NIELSEN MICHAEL H 40 - 49 1965 10:49:54 14.73
5340 8012 VAN ENGELEN ERIK H 40 - 49 1966 10:50:08 14.90
5341 5226 HANSEN JAN JYDE H 40 - 49 1967 10:50:19 15.05
5342 4586 BJORN KETTE F 50 ET + 23 10:50:21 14.74
5343 4587 BJORN SOREN H 60 - 66 190 10:50:21 14.74
5344 4756 VOSMER MARTEN H 40 - 49 1968 10:50:22 15.21
5345 7394 BURRAGE DAVID H 30 - 39 1529 10:50:24 14.79
5346 5728 GOODWIN SIMON H 40 - 49 1969 10:50:31 14.69
5347 5048 EWALDS DRIES H 30 - 39 1530 10:50:42 15.04
5348 7380 MONTES BELLO JORGE H 30 - 39 1531 10:50:43 15.17
5349 5671 J0RGENSEN NICOLAI H 30 - 39 1532 10:50:49 14.97
5350 6734 BUTTERS JIM H 40 - 49 1970 10:50:53 14.96
5351 1828 BOUWMANS ANNELIES F 35 - 49 84 10:50:53 15.06
5352 3903 CIARAPICA MASSIMILIANO H 30 - 39 1533 10:50:54 14.98
5353 7883 CONDAL JORDI H 40 - 49 1971 10:50:55 15.21
5354 4778 LAMBRECHT PETER H 60 - 66 191 10:50:58 15.00
5355 7818 BOND MICHAEL H 40 - 49 1972 10:50:58 14.74
5356 7817 CARPO AMANDA F 35 - 49 85 10:51:04 14.74
5357 6581 SPOTO GIUSEPPE H 50 - 59 945 10:51:07 14.97
5358 2714 Van Den ENDEN MARTIJN H 40 - 49 1973 10:51:10 14.70
5359 6430 STEWART OWEN H 40 - 49 1974 10:51:11 14.99
5360 7225 PALLIER ALAIN H 50 - 59 946 10:51:11 14.88
5361 2631 LEE DEREK H 60 - 66 192 10:51:25 14.82
5362 4650 BARKER HOLLY F 35 - 49 86 10:51:28 14.99
5363 3421 BIRNEY MARTIN H 50 - 59 947 10:51:28 14.46
5364 7035 HURAUX SERGE H 40 - 49 1975 10:51:30 15.19
5365 1339 VALANCE ALEXANDRE H 40 - 49 1976 10:51:31 14.81
5366 7247 ANDERSEN ERLING H 50 - 59 948 10:51:36 15.19
5367 521 RUITENBURG MARCEL H 30 - 39 1534 10:51:36 15.03
5368 460 STEGEHUIS RONALD H 50 - 59 949 10:51:37 15.18
5369 3533 BRUUN OLE H 67 ET + 22 10:51:38 14.90
5370 5227 SPRIGG JEREMY H 40 - 49 1977 10:51:44 14.90
5371 4836 DEN UIJL JOHAN H 18 - 29 521 10:51:47 14.93
5372 7276 CONRADIE GERT H 40 - 49 1978 10:51:52 14.89
5373 5664 MUÑOZ ORTEGA JUAN H 30 - 39 1535 10:51:54 14.59
5374 4866 DE NIJS JAN H 40 - 49 1979 10:51:54 15.13
5375 3921 MAZZOLDI GIAN CARLO H 40 - 49 1980 10:52:00 15.17
5376 5665 AYUSO MANZANO JAVIER H 40 - 49 1981 10:52:08 14.59
5377 3912 BRACCIA IVANO H 30 - 39 1536 10:52:12 14.92
5378 7186 DICKSON ROBERT H 40 - 49 1982 10:52:14 14.52
5379 7715 PICARD JEAN PAUL H 50 - 59 950 10:52:16 15.19
5380 3469 MC INNES JANE F 35 - 49 87 10:52:18 14.90
5381 6086 LLUIS TIRAPU CARRERA H 50 - 59 951 10:52:29 14.93
5382 7603 VAN MEIRHAEGHE RIK H 50 - 59 952 10:52:33 15.10
5383 4443 AUBREY ALASTAIR H 30 - 39 1537 10:52:36 15.10
5384 7246 PEDERSEN STEEN SCHOLER H 50 - 59 953 10:52:45 15.19
5385 3082 NIJHUIS FREDERIK H 60 - 66 193 10:52:50 14.94
5386 3044 SLOOTS BERT H 50 - 59 954 10:52:50 14.94
5387 5133 ANDERSEN BRIAN H 30 - 39 1538 10:52:50 14.92
5388 6670 RIBBENS GUIDO H 67 ET + 23 10:52:51 15.00
5389 3746 CARR DEBORAH F 35 - 49 88 10:52:53 14.90
5390 5011 VAN DE GEVEL DION H 50 - 59 955 10:52:57 14.88
5391 7167 BARROSO SANCHEZ DANIEL H 18 - 29 522 10:53:19 14.84
5392 3542 KNUDSEN KENNET G. H 30 - 39 1539 10:53:34 14.96
5393 6119 WOMERSLEY PAUL H 40 - 49 1983 10:53:55 14.86
5394 2878 SCHELLEKENS MICHAEL H 40 - 49 1984 10:53:56 14.58
5395 6648 HALL ANTHONY H 40 - 49 1985 10:53:58 14.96
5396 7696 CHEVALIER STEPHANE H 40 - 49 1986 10:53:59 14.95
5397 7567 DESGOUTTES PIERRE Yves H 40 - 49 1987 10:53:59 14.95
5398 7803 VANBEKBERGEN RAFAEL H 18 - 29 523 10:54:00 14.80
5399 4583 VISBY ELISABETH F 50 ET + 24 10:54:08 14.78
5400 470 WILMSEN ALBERT H 40 - 49 1988 10:54:22 14.88
5401 4935 POETH MAARTEN H 18 - 29 524 10:54:22 14.74
5402 3296 RICCIO PETER H 50 - 59 956 10:54:27 14.72
5403 4285 BRINKMAN INGE F 35 - 49 89 10:54:34 15.03
5404 2640 BOWSER GORDON H 50 - 59 957 10:54:35 14.79
5405 2157 MALAIS ANDRE H 60 - 66 194 10:54:41 14.94
5406 4779 SMET JAN H 50 - 59 958 10:54:47 14.98
5407 3511 OLSEN CLAUS H 40 - 49 1989 10:54:52 14.09
5408 565 SLOT KAREL H 60 - 66 195 10:55:09 15.00
5409 5137 POULSEN RASMUS L. H 30 - 39 1540 10:55:19 14.56
5410 3101 HOEKMAN JASPER H 30 - 39 1541 10:55:23 14.84
5411 3724 MCKEOWN JONATHAN H 40 - 49 1990 10:55:24 15.16
5412 4624 NOE MARTIJN H 30 - 39 1542 10:55:26 14.90
5413 5532 MOULIN NICOLAS H 30 - 39 1543 10:55:29 14.98
5414 722 ISLANDI STEFAN H 40 - 49 1991 10:55:36 14.99
5415 7315 DE PRINS FRANS H 50 - 59 959 10:55:45 14.96
5416 8006 MUREAU ARNO H 40 - 49 1992 10:55:46 14.73
5417 3596 KEELAN STUART H 30 - 39 1544 10:55:52 14.84
5418 4946 VOLKEN PIETER H 40 - 49 1993 10:55:52 15.11
5419 1733 SCHOLTE INEKE F 50 ET + 25 10:55:56 14.81
5420 1666 UITTENBOGAARD Henk H 50 - 59 960 10:56:07 14.79
5421 1843 SIMPER LARS H 40 - 49 1994 10:56:18 14.93
5422 6569 FIELD JASON H 40 - 49 1995 10:56:22 14.51
5423 6564 WILLIS DAVE H 40 - 49 1996 10:56:24 14.51
5424 5259 MACGREGOR IAIN H 40 - 49 1997 10:56:26 14.89
5425 2172 BODART ARNAUD H 30 - 39 1545 10:56:33 14.87
5426 2848 RUTTEN ROLAND H 40 - 49 1998 10:56:33 15.06
5427 4869 LIEBENS BENNY H 50 - 59 961 10:56:34 14.90
5428 1961 O KELLY MARK H 40 - 49 1999 10:56:42 14.76
5429 3544 HARDMANN RICHARD H 50 - 59 962 10:56:43 14.77
5430 5950 PELSMA MATHIJS H 50 - 59 963 10:56:55 14.65
5431 2887 SCHEVERS HANS H 40 - 49 2000 10:56:55 14.75
5432 5295 ENGELEN JOHAN H 40 - 49 2001 10:57:02 15.14
5433 2907 TIMMERMAN FREEK H 18 - 29 525 10:57:22 14.91
5434 1936 FRIMOR MORTEN H 40 - 49 2002 10:57:25 14.81
5435 3800 ANDERSEN HENRIK H 40 - 49 2003 10:57:31 14.97
5436 2808 ALAERTS MICHEL H 50 - 59 964 10:57:51 14.88
5437 5493 ESKESEN MIKKEL H 30 - 39 1546 10:57:55 14.94
5438 342 ANDERSEN BJARNE Aarup H 50 - 59 965 10:58:01 14.96
5439 5020 MEIJER BJORN H 18 - 29 526 10:58:02 14.80
5440 4109 GRAY MATTHEW H 40 - 49 2004 10:58:15 15.01
5441 3282 TOWERS EMMA F 18 - 34 52 10:58:16 14.79
5442 4369 DREVON SEBASTIEN H 40 - 49 2005 10:58:17 14.93
5443 443 TOENBREKER HARM H 40 - 49 2006 10:58:21 15.00
5444 1754 FLOHIL JAN-WILLEM H 40 - 49 2007 10:58:34 14.96
5445 7414 PERKINS RAY H 40 - 49 2008 10:58:37 14.59
5446 4590 JENSEN WILLY H 50 - 59 966 10:58:43 14.59
5447 6804 VALLS ROIG RAMON H 50 - 59 967 10:58:44 14.92
5448 4741 ZUTT RON H 50 - 59 968 10:58:46 14.67
5449 6651 WOODFORD GUY H 40 - 49 2009 10:58:48 14.95
5450 710 Hansen Soren Holmgaard H 30 - 39 1547 10:58:50 14.95
5451 5055 MULDER ERIK HR H 50 - 59 969 10:58:54 14.77
5452 3293 CAPODANNO ROBERT H 40 - 49 2010 10:58:57 14.97
5453 6044 CALLENS ALEX H 40 - 49 2011 10:59:17 14.90
5454 687 SVENDSEN CARSTEN H 50 - 59 970 10:59:18 14.78
5455 4247 BOSC RICHARD H 40 - 49 2012 10:59:20 14.90
5456 4140 RIQUELME PEREZ ANTONIO H 40 - 49 2013 10:59:20 14.85
5457 4824 VAN EST DICK H 40 - 49 2014 10:59:23 14.88
5458 6339 JUAREZ JOSEPH H 50 - 59 971 10:59:26 14.81
5459 6864 CONTI GRAZIANO H 50 - 59 972 10:59:30 14.95
5460 3811 RASMUSSEN Peter Steen H 50 - 59 973 10:59:33 14.86
5461 4311 DE CALUWE FRANK H 40 - 49 2015 10:59:39 14.52
5462 3832 JORGENSEN MADS BAEK H 18 - 29 527 10:59:53 15.01
5463 2409 CRAWFORD EDDIE H 40 - 49 2016 10:59:54 14.92
5464 7388 HOEST ANDREAS H 18 - 29 528 11:00:01 14.76
5465 6788 MORCH SOREN H 40 - 49 2017 11:00:04 14.83
5466 6709 IGLESIAS GARAY JOSE H 40 - 49 2018 11:00:08 14.91
5467 1508 TOWNSEND BEN H 30 - 39 1548 11:00:10 14.64
5468 5490 CASSOE KLAUS H 40 - 49 2019 11:00:10 14.59
5469 5743 CHAPARTEGUI INAKI H 40 - 49 2020 11:00:12 14.86
5470 4296 OLBRECHTS KLAAS H 30 - 39 1549 11:00:15 14.86
5471 5359 SLAIKJAER BENNY IVAN H 50 - 59 974 11:00:16 14.57
5472 2381 BINNING IAIN H 60 - 66 196 11:00:31 14.98
5473 4655 VIAENE KOEN H 30 - 39 1550 11:00:33 14.85
5474 6583 HENRY FRANCIS H 50 - 59 975 11:00:37 14.76
5475 3045 VAN DER WERFF HESSEL H 30 - 39 1551 11:00:54 14.74
5476 2349 JONES PAUL H 30 - 39 1552 11:01:01 14.82
5477 5467 MARTUCCI PAOLO H 40 - 49 2021 11:01:05 14.64
5478 7136 DE MEULDER BART H 30 - 39 1553 11:01:07 14.49
5479 3881 TVARNO CHRISTIAN H 30 - 39 1554 11:01:10 14.99
5480 4346 SHIPLEY CRAIG H 40 - 49 2022 11:01:17 14.73
5481 5483 BORDOY LARS H 50 - 59 976 11:01:25 14.89
5482 3391 KOOPMAN JAN-JAAP H 40 - 49 2023 11:01:32 14.92
5483 4070 LELONG JEAN JACQUES H 50 - 59 977 11:01:35 14.86
5484 316 EDWARDS STEVEN H 50 - 59 978 11:01:42 14.88
5485 5341 KREBS RENE H 40 - 49 2024 11:01:43 14.70
5486 7120 FJELLBO JON H 40 - 49 2025 11:01:52 14.38
5487 6683 BROUW OP Den ADRIAAN H 40 - 49 2026 11:01:55 14.80
5488 2657 ELKROG SLETSKOV HENRIK H 30 - 39 1555 11:02:08 14.56
5489 4004 THOLOMIER SYLVIE F 35 - 49 90 11:02:18 14.72
5490 5735 THOMPSON MARCUS H 30 - 39 1556 11:02:27 14.76
5491 3719 HANSEN HENRIK JEAN M.  H 40 - 49 2027 11:02:28 14.78
5492 2850 SLUITER APPIE H 50 - 59 979 11:02:33 14.93
5493 4689 RACK EUGENE H 40 - 49 2028 11:02:38 14.98
5494 4882 AALBERS FRED H 30 - 39 1557 11:02:52 14.58
5495 712 BLOMSTERBERG Soren Willy H 60 - 66 197 11:03:09 14.86
5496 3631 RAMAGE IAN H 40 - 49 2029 11:03:14 14.79
5497 1502 LINDAHL J0RGEN H 40 - 49 2030 11:03:53 14.86
5498 5825 DEBERNARDY Jean Charles H 40 - 49 2031 11:03:55 14.82
5499 7364 ALFREDO FUSTER REGIDOR H 30 - 39 1558 11:03:59 14.63
5500 2919 VAN DER KOOIJ TANYA F 18 - 34 53 11:04:02 14.65
5501 5340 THORSEN ANDERS CAT ? 3 11:04:05 14.74
5502 2896 VAN RAVESTEIN DICK H 30 - 39 1559 11:04:12 14.69
5503 6305 NIELSEN PER H 50 - 59 980 11:04:17 14.74
5504 6268 SAYRE STEPHAN H 40 - 49 2032 11:04:20 14.46
5505 6464 SOEE MORTEN H 30 - 39 1560 11:04:24 14.71
5506 4113 DE BONDT PATRIK H 50 - 59 981 11:04:28 14.59
5507 4037 MOORE NIGEL H 50 - 59 982 11:04:38 14.68
5508 2983 BARO DANA H 40 - 49 2033 11:04:43 14.72
5509 5990 BRADY GUY H 50 - 59 983 11:04:46 14.68
5510 8013 VAN WOERKOM HARM H 30 - 39 1561 11:05:01 14.79
5511 2310 JENSEN NIELS H 30 - 39 1562 11:05:05 14.61
5512 1308 CALLET HUBERT H 60 - 66 198 11:05:08 14.97
5513 690 LARSEN BENTE F 50 ET + 26 11:05:15 14.77
5514 1452 DEWAELE JOOST H 40 - 49 2034 11:05:23 14.49
5515 702 KNUDSEN LENE Meldgaard F 50 ET + 27 11:05:24 14.82
5516 4493 LAURIE STEPHANE H 40 - 49 2035 11:05:33 14.69
5517 3001 TIMMERMANS ROELOF H 50 - 59 984 11:05:39 14.82
5518 4278 DUSART STEFAN H 30 - 39 1563 11:05:39 14.56
5519 2307 JESPER JENSEN H 30 - 39 1564 11:05:43 14.61
5520 4355 TORNOE HENRIK H 50 - 59 985 11:05:48 14.90
5521 6233 JAKOBSEN EVAN H 50 - 59 986 11:06:02 14.74
5522 1538 VAN DEN HEURCK Peter H 50 - 59 987 11:06:05 14.76
5523 4281 LESCRAUWAET GINO H 30 - 39 1565 11:06:07 14.80
5524 4825 MARKERINK AUKE H 30 - 39 1566 11:06:09 14.81
5525 5279 KARREMAN RIES H 60 - 66 199 11:06:12 14.84
5526 5031 MACQUOIJ NIELS H 18 - 29 529 11:06:16 14.78
5527 3529 GRUMITT JOHN H 40 - 49 2036 11:06:20 14.45
5528 4840 JONKER NIELS H 18 - 29 530 11:06:23 14.61
5529 6662 DUBOIS RUDI H 40 - 49 2037 11:06:28 14.59
5530 1451 RASMUSSEN MICHAEL H 50 - 59 988 11:06:30 14.67
5531 5112 GOTZSCHE JACOB H 30 - 39 1567 11:06:32 14.69
5532 4981 SCHRIJVERS PETER H 40 - 49 2038 11:06:42 14.87
5533 2370 TURNER ROWLAND H 60 - 66 200 11:06:42 14.63
5534 3505 WHATMAN STEVE H 30 - 39 1568 11:06:44 14.54
5535 2674 EIBERG STEEN H 50 - 59 989 11:06:49 14.75
5536 428 Van Der BERGHE JOHNNY H 40 - 49 2039 11:06:56 14.43
5537 3785 DALUM JOHN H 40 - 49 2040 11:06:56 14.52
5538 4120 OLESEN MARTIN H 40 - 49 2041 11:06:56 14.55
5539 2779 KOPS ERIC H 40 - 49 2042 11:07:07 14.68
5540 5429 COLZI GIANLUCA H 50 - 59 990 11:07:08 14.64
5541 3536 THORO JENS H 40 - 49 2043 11:07:17 14.57
5542 3537 HANSEN JOHN H 50 - 59 991 11:07:17 14.57
5543 4556 Van NIEUWENHUYSE Gentil H 40 - 49 2044 11:07:26 14.29
5544 8029 BALDACCI NADIA F 50 ET + 28 11:07:36 14.82
5545 2688 GJELLEBøL PETER H 60 - 66 201 11:07:38 14.80
5546 4156 DONCKERS NIELS H 18 - 29 531 11:07:39 14.36
5547 1637 WAGTELENBERG HERMAN H 60 - 66 202 11:07:43 14.88
5548 7737 OBERLE CEDRIC H 30 - 39 1569 11:08:01 14.60
5549 3033 VAN DONGEN ANDREAS H 30 - 39 1570 11:08:07 14.73
5550 6140 GILOT PHILIPPE H 50 - 59 992 11:08:10 14.75
5551 3526 BOOTH TAMSIN F 35 - 49 91 11:08:11 14.55
5552 4308 HERBST ALAIN H 30 - 39 1571 11:08:14 14.56
5553 754 FUGLSANG LARS GULD H 50 - 59 993 11:08:16 14.32
5554 4559 Aguirreamalloa Arizaga Javier H 40 - 49 2045 11:08:27 14.61
5555 1461 BRAMSEN JOHN H 40 - 49 2046 11:08:29 14.68
5556 1738 ANGENENT MARIJN H 30 - 39 1572 11:08:32 14.96
5557 6976 AGUIRREAMALLOA Ignacio H 30 - 39 1573 11:08:34 14.60
5558 3556 WITH TORBEN H 50 - 59 994 11:08:39 14.70
5559 4603 HICKMAN GARY H 50 - 59 995 11:08:46 14.63
5560 3051 VAN WINKEL PETER H 40 - 49 2047 11:08:48 14.49
5561 4546 KLINKER HENRIK H 40 - 49 2048 11:09:12 14.61
5562 3284 MACPHERSON ROBIN H 18 - 29 532 11:09:17 14.48
5563 5916 CASALS DAVID H 40 - 49 2049 11:09:20 14.67
5564 5234 PEACOCK MIKE H 50 - 59 996 11:09:20 14.55
5565 7541 JONES GARETH D H 40 - 49 2050 11:09:24 14.61
5566 7662 GILLARD PHILIPPE H 40 - 49 2051 11:09:35 14.63
5567 2732 Van Den BUNGELAAR Bert H 50 - 59 997 11:09:36 14.58
5568 4927 MULDER FERRY H 18 - 29 533 11:09:38 14.47
5569 4757 ODIE ALBERT H 50 - 59 998 11:09:42 14.65
5570 5003 Van Der HEIJDEN Wouter H 30 - 39 1574 11:09:53 14.47
5571 4933 HADDERS MARTIJN H 30 - 39 1575 11:09:57 14.63
5572 689 BORGLUM ANNE F 35 - 49 92 11:10:04 14.82
5573 4942 VERSLUIS GOVERT H 40 - 49 2052 11:10:15 14.59
5574 5859 MAJOR CHARLES H 40 - 49 2053 11:10:32 14.71
5575 4671 HOLL MICHAEL H 18 - 29 534 11:10:36 14.55
5576 3569 PEDERSEN RENE H 40 - 49 2054 11:10:42 13.61
5577 2833 HENDRIKSEN RICHARD H 40 - 49 2055 11:10:45 14.52
5578 2347 GERSTOFT JAN H 60 - 66 203 11:10:50 14.28
5579 5102 VAN DER HELDEN JURJEN H 40 - 49 2056 11:11:00 14.43
5580 5280 FRANSEN KEES H 60 - 66 204 11:11:19 14.82
5581 2217 KRISTOFFERSEN HENRIK H 40 - 49 2057 11:11:33 14.64
5582 5079 WIERINGA LARS H 40 - 49 2058 11:11:36 14.53
5583 3608 WALKER ROBIN H 40 - 49 2059 11:11:46 14.20
5584 6733 HOWELL TIM H 40 - 49 2060 11:11:49 14.61
5585 2803 DENEEF KOEN H 30 - 39 1576 11:11:55 14.36
5586 3610 GILDERSLEVE CHRIS H 50 - 59 999 11:11:55 14.53
5587 7194 MERRICKS JONATHAN H 40 - 49 2061 11:11:56 14.41
5588 1206 RABET SYLVAIN H 40 - 49 2062 11:12:04 14.83
5589 6997 VOTA OLIVIER H 40 - 49 2063 11:12:09 14.58
5590 3576 NORDSTROM JAN H 50 - 59 1000 11:12:15 13.61
5591 4435 DELEU FANNY F 35 - 49 93 11:12:21 14.56
5592 3090 OOSTENBROEK MARTEN H 50 - 59 1001 11:12:22 14.60
5593 3530 HARRISON MARTIN H 40 - 49 2064 11:12:25 14.33
5594 6931 COLENUTT JOHN H 50 - 59 1002 11:12:25 14.31
5595 5455 ROCCHI PIETRO H 60 - 66 205 11:12:39 14.58
5596 5139 LARSEN LEO H 60 - 66 206 11:12:41 14.50
5597 1450 JULH CLAUS H 30 - 39 1577 11:12:49 14.58
5598 6270 AGERBO NIELSEN FINN H 50 - 59 1003 11:13:12 14.69
5599 5197 MATHIESEN SUNE H 30 - 39 1578 11:13:17 14.65
5600 6811 LAINE KARL H 30 - 39 1579 11:13:21 14.55
5601 6381 MARTIN MATTHEW H 30 - 39 1580 11:13:30 14.38
5602 7077 ERENS THEO H 50 - 59 1004 11:13:52 14.44
5603 5530 VELDKAMP JORIS H 18 - 29 535 11:13:59 14.71
5604 3579 ROBSON AIDAN H 50 - 59 1005 11:14:03 14.48
5605 3534 SVENDSEN STEEN H 67 ET + 24 11:14:06 13.77
5606 6355 KRAP XANDER H 40 - 49 2065 11:14:06 14.37
5607 4667 STEINKI OLIVER H 18 - 29 536 11:14:09 14.55
5608 6393 VEZZARO NICOLA H 40 - 49 2066 11:14:14 14.56
5609 6507 ZANCA MAURO H 30 - 39 1581 11:14:18 14.56
5610 3822 LAURSEN JENS H 40 - 49 2067 11:14:33 14.58
5611 1746 DIERICK JOHAN H 60 - 66 207 11:14:36 14.63
5612 7650 JACOB STEPHANE H 30 - 39 1582 11:14:45 14.46
5613 1362 CLARKE MATTHEW H 30 - 39 1583 11:14:48 14.15
5614 3690 LARSEN TROELS LAU H 30 - 39 1584 11:14:51 14.40
5615 6121 HUP ARJEN H 40 - 49 2068 11:14:54 14.59
5616 100 CORNE PHILIPPE H 60 - 66 208 11:15:13 14.57
5617 3076 Van ENDHOVEN PHILIPPUS H 50 - 59 1006 11:15:15 14.36
5618 5196 JAGD THOMAS SCHOU H 40 - 49 2069 11:15:16 14.63
5619 6220 DINES CHRISTOPHER H 50 - 59 1007 11:15:21 14.24
5620 5100 BOUMA REMCO H 40 - 49 2070 11:15:34 14.46
5621 1387 WENS PIET H 40 - 49 2071 11:15:37 14.65
5622 6225 VAN STEEHBERGHE Bart H 30 - 39 1585 11:15:45 14.68
5623 1484 CHEVASSUT JEAN-MARIE H 40 - 49 2072 11:15:50 14.66
5624 499 BLUNT BERTRAND H 30 - 39 1586 11:15:56 14.66
5625 4471 VAN DER HEIJDEN JOOST H 30 - 39 1587 11:15:56 14.60
5626 4574 MULDREW WILLIAM H 30 - 39 1588 11:15:59 14.36
5627 5054 GERRITSEN J.F. Gerritsen H 50 - 59 1008 11:16:03 14.39
5628 5330 MAGNUSSEN KIM OBEL H 40 - 49 2073 11:16:09 14.47
5629 7050 POWER CHRISTOPHER H 30 - 39 1589 11:16:24 14.52
5630 4944 RIJNIERSE GIJS H 30 - 39 1590 11:16:26 14.77
5631 2797 LUYPAERT JOHAN H 30 - 39 1591 11:16:37 14.36
5632 4033 MACCLUSKIE IAIN H 40 - 49 2074 11:16:44 14.69
5633 6686 WOOD GARRY H 40 - 49 2075 11:16:48 14.57
5634 3271 HATFIELD ALEXANDER H 40 - 49 2076 11:17:03 14.36
5635 4485 LYONS PETER H 40 - 49 2077 11:17:14 14.28
5636 5132 RASMUSSEN LARS H 30 - 39 1592 11:17:38 14.53
5637 2554 CLEMENT FREDRIK H 40 - 49 2078 11:17:38 14.45
5638 2615 MCROBERTS JANET F 35 - 49 94 11:17:40 14.44
5639 4073 ANDEOL INES F 35 - 49 95 11:17:42 14.38
5640 2628 WILSON RICHARD H 40 - 49 2079 11:17:46 14.33
5641 5013 GOSSELAAR PETER H 40 - 49 2080 11:17:46 14.52
5642 5124 CHRISTIANSEN NIELS H 60 - 66 209 11:17:54 14.39
5643 5616 HEALE BILL H 50 - 59 1009 11:17:54 14.52
5644 7350 HUVENEERS STEPHAN H 30 - 39 1593 11:17:59 14.38
5645 6051 CONNELL RICHARD H 40 - 49 2081 11:18:01 14.37
5646 7779 DE MEESTER GINO H 40 - 49 2082 11:18:21 14.12
5647 679 ELIJZEN DIRK H 50 - 59 1010 11:18:21 14.64
5648 454 ALDERS MELANIE F 35 - 49 96 11:18:30 14.49
5649 4897 VAN KAMPEN ALEX H 40 - 49 2083 11:18:32 14.46
5650 4042 FABRY ALAIN H 60 - 66 210 11:18:35 14.20
5651 4394 CARVALHO JOSE H 40 - 49 2084 11:18:39 14.59
5652 4126 DE PAEPE HANS H 40 - 49 2085 11:18:52 14.45
5653 3757 MOES YORICK H 30 - 39 1594 11:19:19 14.24
5654 3669 EDMONDS BEN H 30 - 39 1595 11:19:33 14.50
5655 6054 THYS LINDA F 35 - 49 97 11:19:42 14.58
5656 6159 GILMAIRE FABIAN H 18 - 29 537 11:19:46 14.26
5657 3814 SORENSEN KIM H 60 - 66 211 11:19:47 14.14
5658 5397 OLCZYK POUL H 50 - 59 1011 11:20:05 14.38
5659 1750 NESSE FRANK H 40 - 49 2086 11:20:06 14.63
5660 1659 DAMS CHARLES H 67 ET + 25 11:20:21 14.46
5661 3633 WILSON DAVID H 30 - 39 1596 11:21:01 14.32
5662 3264 DE HAVAILAND KRIS H 40 - 49 2087 11:21:05 14.29
5663 6185 WILLEM MARIO H 30 - 39 1597 11:21:06 14.53
5664 7729 ROELEN JAN H 50 - 59 1012 11:21:07 14.57
5665 2407 JOHNSON CHARLES H 40 - 49 2088 11:21:25 14.02
5666 5236 BOWRING NICHOLAS H 50 - 59 1013 11:21:33 14.43
5667 7338 DESCHEPPER JOHAN H 40 - 49 2089 11:21:33 14.15
5668 1643 LEENEN JEROEN H 50 - 59 1014 11:22:34 14.32
5669 5468 OSTI ANNIBALE H 50 - 59 1015 11:22:35 14.58
5670 1338 VALANCE ANTOINE H 67 ET + 26 11:22:41 14.25
5671 3351 APPLEBY PETE H 40 - 49 2090 11:22:44 14.26
5672 4468 HOOK IAN H 40 - 49 2091 11:22:52 14.54
5673 6912 MUSTO LUIGI H 50 - 59 1016 11:23:01 14.40
5674 3133 DOHMEN RENE H 50 - 59 1017 11:23:07 14.35
5675 1201 Esnaola Iraola Joxe Manuel H 40 - 49 2092 11:23:16 14.46
5676 637 VAN MEGEN HANS H 60 - 66 212 11:23:36 14.39
5677 2871 DRIESSEN THEO H 40 - 49 2093 11:23:42 14.33
5678 5571 HILBET OLE H 50 - 59 1018 11:23:47 14.34
5679 3352 BENSON GARY H 40 - 49 2094 11:23:48 14.24
5680 4170 ROOSJEN LYKLE H 30 - 39 1598 11:23:57 14.21
5681 4497 ADRIAENSSEN JOHN H 50 - 59 1019 11:24:14 14.40
5682 7657 LAITAT CHRISTIAN H 40 - 49 2095 11:24:25 14.37
5683 3383 KLEINVELD HELEN F 35 - 49 98 11:24:31 14.51
5684 4206 GILLES ANDRE H 60 - 66 213 11:24:33 14.32
5685 1630 BRUGMAN RICK H 40 - 49 2096 11:24:43 14.46
5686 3769 SCHUMACHER DANIEL H 30 - 39 1599 11:24:51 14.08
5687 5061 HUYGHE JULES H 60 - 66 214 11:25:13 14.37
5688 552 SLAGMAN MAARTJE F 18 - 34 54 11:25:15 14.28
5689 3075 KRUITHOF MARCEL H 30 - 39 1600 11:25:16 14.60
5690 3830 K. JENSEN TOMMY H 60 - 66 215 11:25:20 13.96
5691 2625 MUNDY ROB H 30 - 39 1601 11:25:23 14.21
5692 5111 PEDERSEN LARS H 40 - 49 2097 11:25:29 14.13
5693 2789 HOEKSTRA COR H 40 - 49 2098 11:25:35 14.17
5694 980 QUEVAUVILLERS Dominique H 60 - 66 216 11:25:43 14.31
5695 3833 JORGENSEN FINN BOGH H 40 - 49 2099 11:25:45 14.14
5696 4165 SUYS ERWIN H 50 - 59 1020 11:25:53 14.33
5697 3798 OSTERGARD HENRIK H 40 - 49 2100 11:25:54 13.96
5698 1381 VILSTRUP JESPER H 40 - 49 2101 11:25:56 14.26
5699 4014 BUNYAN ALASDAIR H 40 - 49 2102 11:26:01 14.25
5700 5281 TERLOO AD H 40 - 49 2103 11:26:30 14.35
5701 3768 PETRIE GARY H 40 - 49 2104 11:26:41 14.18
5702 5229 WALKER KARL H 30 - 39 1602 11:26:46 14.11
5703 2892 LOOISE NANA F 18 - 34 55 11:26:52 13.94
5704 1915 JEPSEN Christian LINDEGARD H 40 - 49 2105 11:26:56 13.95
5705 4429 MARIEN PATRICK H 40 - 49 2106 11:26:58 14.29
5706 3747 PROUDLOCK KEVIN H 50 - 59 1021 11:27:00 14.03
5707 7230 AERTS PAUL H 40 - 49 2107 11:27:04 14.11
5708 1382 BRAAGAARD BANG Kenneth H 40 - 49 2108 11:27:04 14.26
5709 4021 STEWART PAUL H 40 - 49 2109 11:27:16 14.23
5710 3300 ZECHER CLARE F 35 - 49 99 11:27:17 14.22
5711 4020 DOYLE JOHN H 40 - 49 2110 11:27:17 14.23
5712 3558 DE LINDE TINA F 50 ET + 29 11:27:20 14.15
5713 2090 BARNEL FABIENNE F 50 ET + 30 11:27:50 14.18
5714 5439 MONTERUBBIANO Claudio H 40 - 49 2111 11:27:55 14.39
5715 2089 BARNEL BERNARD H 60 - 66 217 11:27:55 14.18
5716 505 LOENEN PAUL H 30 - 39 1603 11:28:56 14.18
5717 992 DEVILLERS YVES H 50 - 59 1022 11:29:02 14.31
5718 4433 WAEGEMANS RUDY H 40 - 49 2112 11:29:06 14.29
5719 1679 MANSCHOT CAREL H 60 - 66 218 11:29:25 14.02
5720 2885 VAN DER WERFF JELLE H 18 - 29 538 11:29:27 14.30
5721 3366 QUINN ANTHONY H 40 - 49 2113 11:29:45 14.14
5722 1727 DAEMS JOHAN H 40 - 49 2114 11:30:07 14.36
5723 7763 GRIZIAUX JOEL H 50 - 59 1023 11:30:17 14.29
5724 2810 VAN ROSSUM MARK H 40 - 49 2115 11:30:19 14.10
5725 5945 PELSMA JELLE H 50 - 59 1024 11:30:36 14.17
5726 4766 BOGAERTS MARC H 50 - 59 1025 11:30:50 13.94
5727 3429 HANNIN JOHN H 50 - 59 1026 11:30:59 13.80
5728 3287 PIGOTT RICHARD H 40 - 49 2116 11:31:02 14.21
5729 3137 VERSTRATEN GERRY H 50 - 59 1027 11:31:02 14.35
5730 2828 VAN DER HEK ROBERT H 40 - 49 2117 11:31:11 14.20
5731 4654 SPRATT JIM H 50 - 59 1028 11:31:16 14.12
5732 1793 WILSCHUT MARTIN H 40 - 49 2118 11:31:23 13.67
5733 6343 MACINAI GUIDO H 60 - 66 219 11:31:24 14.27
5734 3458 MOORE DEAN H 30 - 39 1604 11:31:55 14.01
5735 994 DUBUC PATRICK H 50 - 59 1029 11:31:56 14.10
5736 6824 VAN HERK HERMAN H 30 - 39 1605 11:31:59 14.31
5737 6280 STEWART BLACKER PATRICK H 30 - 39 1606 11:32:09 13.91
5738 1766 RAMAEKERS HANS H 40 - 49 2119 11:32:22 13.67
5739 8028 BANZI DANIELA F 50 ET + 31 11:32:33 14.21
5740 2893 BECKERS JEROEN H 30 - 39 1607 11:32:36 13.95
5741 1859 TRAP NIELS VALDEMAR H 40 - 49 2120 11:32:39 14.06
5742 5176 FLYVBJERG JOHANNES H 40 - 49 2121 11:32:47 14.21
5743 2220 BENTON SALLY F 35 - 49 100 11:32:54 14.11
5744 7040 RUYS STEFAN H 40 - 49 2122 11:32:57 14.04
5745 4477 Fiesta Garcia-Izquierdo Jose Manuel H 40 - 49 2123 11:32:59 14.15
5746 4455 PONCELET NATHALIE F 35 - 49 101 11:33:13 14.17
5747 2561 AKERBOOM JEFF H 30 - 39 1608 11:33:19 13.78
5748 6399 NORGA LUC H 50 - 59 1030 11:33:37 13.92
5749 555 POLHAAR HAN H 40 - 49 2124 11:34:33 13.88
5750 4987 FUHLER NORBERT H 30 - 39 1609 11:35:24 13.86
5751 4670 KUESTERS THOMAS H 18 - 29 539 11:35:27 13.91
5752 3346 BATEMAN MARTIN H 40 - 49 2125 11:35:31 13.99
5753 465 KOELEMAN KEA F 35 - 49 102 11:36:10 14.29
5754 7442 JACKSON MATTHEW H 30 - 39 1610 11:36:13 14.28
5755 1433 UMMELS MICHIEL H 30 - 39 1611 11:36:16 14.10
5756 2571 LETHER HERMAN H 30 - 39 1612 11:36:26 14.31
5757 7018 FOUCHIER PIERRE H 40 - 49 2126 11:36:36 14.22
5758 7080 HUNTJENS KURT H 40 - 49 2127 11:36:37 14.04
5759 3008 HENDRIKS PAUL H 30 - 39 1613 11:36:52 13.80
5760 1327 PETERSEN CARSTEN H 50 - 59 1031 11:37:16 13.87
5761 7503 GITTOS JONATHAN H 40 - 49 2128 11:37:16 14.19
5762 778 Kristiansen Freddy Dan Dalgas H 40 - 49 2129 11:37:22 14.10
5763 7278 DE BEEN PETER H 18 - 29 540 11:37:55 13.96
5764 2448 VUERINCKX BRUNO H 50 - 59 1032 11:38:06 14.00
5765 2410 DAVIS PETER H 40 - 49 2130 11:38:37 13.68
5766 3017 JANSEN WILLEM H 30 - 39 1614 11:38:50 13.80
5767 2656 KNUDSEN KASPER H 30 - 39 1615 11:38:53 13.80
5768 4905 VAN LEEUWEN TONNY H 50 - 59 1033 11:39:19 14.06
5769 590 KIEFTE ROBERT H 30 - 39 1616 11:39:36 14.13
5770 4976 HADDERS HERWIN H 40 - 49 2131 11:39:39 14.12
5771 4932 HADDERS MINETTE H 40 - 49 2132 11:39:39 14.12
5772 6653 ROMAGNOLI ANDREW H 30 - 39 1617 11:39:41 13.97
5773 4584 NIELSEN TINA F 50 ET + 32 11:39:56 13.96
5774 5071 SPIERENBURG MARTIJN H 40 - 49 2133 11:40:02 14.12
5775 3803 MORTENSEN NIELS Erik H 50 - 59 1034 11:40:17 13.93
5776 2489 THEXTON SIMON H 30 - 39 1618 11:40:31 13.81
5777 2937 DANS ERIK H 18 - 29 541 11:40:31 13.62
5778 4216 JENSEN JOERGEN H 50 - 59 1035 11:40:51 14.03
5779 6981 MURRAY CATHERINE F 35 - 49 103 11:40:52 14.28
5780 2946 ZUIJDERWIJK MARK H 30 - 39 1619 11:40:53 13.62
5781 588 MAK ARNO H 30 - 39 1620 11:41:01 14.10
5782 1935 DALSKOV PER H 60 - 66 220 11:41:07 14.07
5783 6313 DE WACHTER DIRK H 40 - 49 2134 11:41:18 13.87
5784 7826 PLENDERLEITH TOBY H 40 - 49 2135 11:41:28 13.89
5785 5316 RASMUSSEN STEEN W. H 40 - 49 2136 11:41:31 13.70
5786 2998 OP T HOLT HANS H 40 - 49 2137 11:41:47 13.95
5787 484 MOERLAND PETER H 50 - 59 1036 11:41:51 14.06
5788 7133 WUYTS RUDY H 50 - 59 1037 11:41:59 13.84
5789 4293 HORNDRUP ALEX H 30 - 39 1621 11:42:21 14.05
5790 3751 MILLWARD JOHN H 30 - 39 1622 11:42:52 14.01
5791 2620 JONES GEORGE H 40 - 49 2138 11:43:04 13.93
5792 5396 POULSEN JOHNNY JUL H 60 - 66 221 11:43:07 14.05
5793 3802 FAARUP LARS H 50 - 59 1038 11:43:20 13.68
5794 3095 RIJNIERSE PETER H 60 - 66 222 11:43:31 13.98
5795 153 VAN GILS ROZA F 50 ET + 33 11:43:38 14.04
5796 3385 Van Der VEEKEN MICHELLE F 18 - 34 56 11:44:08 13.78
5797 3384 VAN DIJK TANJA F 35 - 49 104 11:44:10 13.78
5798 3386 NALIS LINDA F 18 - 34 57 11:44:14 13.78
5799 4767 VAN DER HEE RICHARD H 40 - 49 2139 11:44:15 13.94
5800 4030 BEZUIDENHOUT MATTHEW H 18 - 29 542 11:44:17 13.90
5801 6048 RASMUSSEN RENE H 40 - 49 2140 11:44:37 14.06
5802 3077 VERSTEEG ROB H 50 - 59 1039 11:44:44 13.95
5803 2764 BERKHOUDT PAUL H 40 - 49 2141 11:45:10 13.92
5804 3748 SHORT KEVIN H 40 - 49 2142 11:45:13 13.79
5805 4316 COULIER KURT H 30 - 39 1623 11:45:21 13.92
5806 6759 ATKINSON PHILIP H 50 - 59 1040 11:45:23 13.87
5807 1642 BROEDERS WILLEM H 50 - 59 1041 11:45:29 13.63
5808 6654 CANIVET EDDY H 40 - 49 2143 11:45:29 14.06
5809 5123 BRIX JOHN H 50 - 59 1042 11:45:34 13.86
5810 4413 IRONS CHRIS H 40 - 49 2144 11:45:50 14.00
5811 2169 DEWIT CEDRIC H 30 - 39 1624 11:45:52 14.07
5812 4711 VERBERK COEN H 30 - 39 1625 11:45:58 14.00
5813 5165 NIELSEN KENNETH Lykke H 40 - 49 2145 11:46:01 13.97
5814 3801 ZIELKE KIM H 40 - 49 2146 11:46:02 13.59
5815 3039 GOUDSWAARD WIETSKE F 18 - 34 58 11:46:02 13.94
5816 7815 BROWN MARTIN H 50 - 59 1043 11:46:45 13.89
5817 5164 SIMONSEN Brian Ziegler H 40 - 49 2147 11:47:03 14.09
5818 4737 JACOBS LOTTE H 30 - 39 1626 11:47:10 14.05
5819 1429 HOLBROOK ANDREW H 30 - 39 1627 11:47:14 13.43
5820 2530 HANSEN MAX PANK H 40 - 49 2148 11:47:15 13.80
5821 1933 ANDERSEN OLE H 50 - 59 1044 11:47:16 13.89
5822 2679 EDVARDSEN PALLE H 50 - 59 1045 11:47:28 13.58
5823 5709 BROK KRISTIAN H 40 - 49 2149 11:47:53 13.96
5824 551 VAN DJK MARCEL H 50 - 59 1046 11:48:01 13.97
5825 1899 NIELSEN BENT RIBER H 50 - 59 1047 11:48:12 13.74
5826 7273 PORADA RICHARD H 40 - 49 2150 11:48:17 14.01
5827 3306 AL-TEK ALI H 40 - 49 2151 11:48:20 13.91
5828 6223 HILBERT PETER H 40 - 49 2152 11:49:11 13.79
5829 2557 HYLLESTED JESPER H 40 - 49 2153 11:49:28 13.95
5830 1954 QUINLAN MICHAEL H 40 - 49 2154 11:49:58 13.75
5831 1760 DEKKER MARK H 30 - 39 1628 11:50:00 13.79
5832 4585 KIRKEGAARD SOREN H 50 - 59 1048 11:50:12 13.78
5833 3340 ELLS LOUISA F 35 - 49 105 11:50:18 13.67
5834 7138 Van Der Schraelen Ludo H 50 - 59 1049 11:50:49 13.74
5835 6271 DALKIN SIMON H 40 - 49 2155 11:51:12 13.78
5836 3553 THOMSEN OLE H 60 - 66 223 11:51:22 13.47
5837 575 KIPHARDT GERRIT-JAN H 40 - 49 2156 11:51:25 13.98
5838 6125 JESSOP STEVE H 50 - 59 1050 11:51:26 13.78
5839 5320 JONSSON NIKLAS H 30 - 39 1629 11:51:36 12.98
5840 485 MOERLAND CHRIS H 50 - 59 1051 11:53:30 13.84
5841 7475 ORWIN ROY H 30 - 39 1630 11:54:09 13.94
5842 2641 KENNEDY JAMES H 50 - 59 1052 11:54:19 13.80
5843 1759 LUEKS ERIK H 40 - 49 2157 11:54:41 13.79
5844 4812 LINDEBOOM FRIDA F 18 - 34 59 11:54:45 13.68
5845 4036 BRAVOS FERNAND H 50 - 59 1053 11:55:25 13.24
5846 3543 VESPERINI SUSANNE F 50 ET + 34 11:55:28 13.56
5847 3548 ARNOLD BO H 40 - 49 2158 11:56:08 13.14
5848 466 VAN TOOR HANS H 50 - 59 1054 11:56:13 13.70
5849 3489 MC ARTHUR PETER H 60 - 66 224 11:56:14 13.78
5850 3649 CHASE MARK H 40 - 49 2159 11:56:34 13.70
5851 2497 GREGORIE BEE F 35 - 49 106 11:57:30 13.50
5852 2498 GREGORIE HAMISH H 40 - 49 2160 11:57:30 13.50
5853 737 ARVE STEEN H 50 - 59 1055 11:57:31 13.79
5854 3151 OSSENKOPPELE LARS H 40 - 49 2161 11:57:32 13.72
5855 3820 BUNDGAARD MARIANNE H 50 - 59 1056 11:57:46 13.51
5856 5492 ANDRESEN MARTIN H 30 - 39 1631 11:57:57 13.50
5857 3686 Marshall Errold Hedevang H 40 - 49 2162 11:58:23 13.70
5858 3024 ROTTHIER JURGEN H 30 - 39 1632 11:58:24 13.86
5859 523 RUITENBURG RONALD H 40 - 49 2163 11:59:17 13.48
5860 6314 SCHMITT LAURENT H 50 - 59 1057 11:59:20 13.86
5861 7073 ROBINSON JOHN H 67 ET + 27 11:59:42 13.64
5862 2514 POULSEN PER H 50 - 59 1058 11:59:45 13.55
5863 3735 GOLSBY CAROL F 50 ET + 35 12:00:14 13.59
5864 556 DE VALK JAN H 40 - 49 2164 12:01:01 13.68
5865 3055 VAN STEENIS PIETER H 18 - 29 543 12:01:17 13.76
5866 2254 FOLLAND PAUL H 50 - 59 1059 12:01:18 13.60
5867 3395 PARDO CARLOS H 30 - 39 1633 12:01:21 13.80
5868 3431 TWOMEY JOHN H 30 - 39 1634 12:01:25 13.21
5869 3934 CAMORANI ROBERTO H 50 - 59 1060 12:01:40 13.45
5870 3932 BENDOTTI DAVIDE H 40 - 49 2165 12:01:41 13.45
5871 730 Christensen Jorn Sonderkjaer H 50 - 59 1061 12:01:53 13.80
5872 7323 SIEMINSKI ALEKSANDER H 50 - 59 1062 12:02:30 13.62
5873 3540 LARSEN PETER FINN H 60 - 66 225 12:02:43 13.39
5874 6726 HOLT MARTIN H 40 - 49 2166 12:02:51 13.67
5875 3692 HANSEN KURT H 40 - 49 2167 12:02:58 13.45
5876 706 LARSEN MIKAEL JUUL H 40 - 49 2168 12:03:04 13.48
5877 6357 MARZANO Marco Stefano H 40 - 49 2169 12:03:09 13.36
5878 3804 ORTS ALLAN H 50 - 59 1063 12:03:14 13.33
5879 3733 KRISKINANS JOHN H 50 - 59 1064 12:03:18 13.63
5880 1751 VAN GIEZEN JACO H 30 - 39 1635 12:03:23 13.73
5881 1934 JENSEN KIM KURT H 50 - 59 1065 12:03:25 13.44
5882 1932 EKELUND SUSANNE F 50 ET + 36 12:03:26 13.44
5883 4329 JEPPESEN LARS H 60 - 66 226 12:03:30 13.47
5884 6737 JONES TIM H 40 - 49 2170 12:03:46 13.67
5885 5989 WRIGHT NICHOLAS H 50 - 59 1066 12:03:47 13.71
5886 711 PETERSEN SOREN H 60 - 66 227 12:03:56 13.62
5887 5507 IMPENS DIMITRI H 40 - 49 2171 12:04:13 13.51
5888 7324 HJULMANN KLAUS H 40 - 49 2172 12:04:15 13.67
5889 7321 ZAWICHOWSKI TOMASZ H 30 - 39 1636 12:04:26 13.63
5890 2767 VAN DER KNAAP PETER H 40 - 49 2173 12:05:10 13.58
5891 6175 NOOTEBOOM HIDDE H 18 - 29 544 12:05:55 13.49
5892 3432 GLEESON DENIS H 50 - 59 1067 12:06:10 13.21
5893 2515 POULSEN MORTEN H 30 - 39 1637 12:06:26 13.56
5894 9984 SOUFFLET JEAN PIERRE H 67 ET + 28 12:06:26 13.65
5895 919 DE BRUIN RON H 60 - 66 228 12:06:44 13.26
5896 3919 Martinengo Ceraresco Laura H 50 - 59 1068 12:06:45 13.50
5897 2771 NEDERPELT CARLO H 40 - 49 2174 12:06:54 13.58
5898 9912 FIERS HUBERT H 60 - 66 229 12:07:22 13.22
5899 686 FRANSEN VAGN H 50 - 59 1069 12:09:48 13.39
5900 2385 NUMAN FOKKO H 40 - 49 2175 12:10:01 13.40
5901 7865 AUFFRAY ALAIN H 60 - 66 230 12:10:02 13.68
5902 1855 ROLKJER CLAUS H 50 - 59 1070 12:10:42 13.52
5903 3995 RASMUSSEN BERGUR H 18 - 29 545 12:11:03 13.43
5904 3549 GRINDORF HENNING H 50 - 59 1071 12:11:20 13.33
5905 832 D AMBROSIO GIOVANNI H 30 - 39 1638 12:11:38 13.63
5906 2251 MUSIC GORAN H 40 - 49 2176 12:11:53 13.52
5907 2458 Martinez De Trevino Benede Jorge H 30 - 39 1639 12:12:05 13.32
5908 553 ORHAN TAYFUN H 30 - 39 1640 12:12:49 13.28
5909 3345 MENZIES GEORGE H 40 - 49 2177 12:14:21 13.23
5910 5482 ANDERSEN RENE H 50 - 59 1072 12:14:23 13.03
5911 3767 KYTE ROBIN H 50 - 59 1073 12:14:54 13.62
5912 7309 STUZKA PAVEL H 40 - 49 2178 12:14:55 13.52
5913 6243 HERTZ MIKAEL H 50 - 59 1074 12:15:01 13.46
5914 6730 STOKES JUSTIN H 30 - 39 1641 12:16:11 13.36
5915 5800 WATSON GUY H 40 - 49 2179 12:16:54 13.44
5916 721 CARLSEN SOREN H 40 - 49 2180 12:17:23 13.47
5917 2920 VAN SCHAGEN SIJMEN H 30 - 39 1642 12:18:21 13.37
5918 3288 LAWRENCE DAMON H 40 - 49 2181 12:18:44 13.29
5919 3430 GARGAN PETER H 60 - 66 231 12:19:24 13.00
5920 3789 CHRISTENSEN KIM H 50 - 59 1075 12:19:46 13.29
5921 2954 RIJNJA RODERICK H 18 - 29 546 12:19:53 13.22
5922 3815 HVAS JES H 50 - 59 1076 12:20:36 13.42
5923 707 MOLLEGAARD MORTEN H 40 - 49 2182 12:20:59 13.17
5924 820 SMIDT-NIELSEN JESPER H 40 - 49 2183 12:21:09 13.08
5925 1761 ZWIERS MATHIJS H 30 - 39 1643 12:21:26 13.12
5926 5243 HUGH PETER H 40 - 49 2184 12:22:19 13.36
5927 3393 WISSEL ADRIAAN H 50 - 59 1077 12:22:22 13.44
5928 5209 MYRLAND Kjeld Henning H 50 - 59 1078 12:22:52 13.47
5929 4895 BEUVING JAN EGBERT H 40 - 49 2185 12:23:19 13.30
5930 2923 KIEBOOM JELLE H 30 - 39 1644 12:24:04 13.38
5931 1872 VALLENTIN KIM H 40 - 49 2186 12:24:32 13.10
5932 3598 GARBY LASSE H 40 - 49 2187 12:25:48 13.16
5933 4015 DEBARD YVETTE F 35 - 49 107 12:26:25 13.00
5934 4048 GUIGAL THIERRY H 40 - 49 2188 12:26:25 13.00
5935 2496 RAUSCH CHRISTINA F 35 - 49 108 12:28:49 13.32
5936 4739 BRUYNINCKX MYRIAM F 50 ET + 37 12:28:56 12.98
5937 5536 KOFOED PER H 50 - 59 1079 12:29:19 12.98
5938 7152 STRUTT MATHEW H 40 - 49 2189 12:30:33 12.85
5939 6513 BART JACOBS H 30 - 39 1645 12:30:46 12.91
5940 6958 REYSERHOVE FRANKY H 50 - 59 1080 12:31:55 12.93
5941 4502 MORRAS ROBERTO H 40 - 49 2190 12:33:08 12.97
5942 3368 SCLAVON JEAN MARIE H 60 - 66 232 12:33:16 12.46
5943 4422 OLSEN JAN H 50 - 59 1081 12:34:01 13.01
5944 4854 OSTROWSKI MATTHEW JON H 40 - 49 2191 12:34:33 12.91
5945 7177 WATSON BEN H 30 - 39 1646 12:35:13 13.03
5946 6376 MOREHEAD JASON H 30 - 39 1647 12:35:46 12.90
5947 6561 SORENSEN Peter Lykke H 50 - 59 1082 12:35:48 12.76
5948 3627 GILDERSLEVE NIGEL H 50 - 59 1083 12:36:07 12.89
5949 6520 VERKUIJL MARTIJN H 30 - 39 1648 12:36:09 12.94
5950 3643 WEBSTER DANNY H 40 - 49 2192 12:36:28 12.45
5951 4226 DUPONT PAOLO H 60 - 66 233 12:36:57 13.00
5952 5506 DOLZ GOMEZ RAUL H 30 - 39 1649 12:37:13 13.01
5953 5608 ANDERSEN Lars Kirstein H 50 - 59 1084 12:38:53 12.72
5954 563 WALKENBACH FRENK H 40 - 49 2193 12:39:11 12.97
5955 1920 LARVOLD KIM H 50 - 59 1085 12:39:33 12.66
5956 5400 KLINKEBY ERLING H 60 - 66 234 12:39:47 12.87
5957 2772 JANSEN MARCO H 40 - 49 2194 12:39:48 12.94
5958 4154 ALEGRIA INAKI H 40 - 49 2195 12:39:58 12.91
5959 4363 ALZOLA IGNACIO H 40 - 49 2196 12:40:06 12.91
5960 7875 SCHMITZ MARTIN H 40 - 49 2197 12:40:39 13.02
5961 1926 OLSEN MORTEN H 18 - 29 547 12:42:35 12.66
5962 1916 BROOKER STEVEN Michael H 40 - 49 2198 12:42:47 12.94
5963 1625 POT LEO H 50 - 59 1086 12:43:26 13.04
5964 6987 DUSSILLOLS LAURENT H 40 - 49 2199 12:43:26 12.95
5965 789 MOELLER KJELD H 50 - 59 1087 12:43:55 12.40
5966 1929 HANSEN Kim Ostergaard H 40 - 49 2200 12:44:08 12.95
5967 6524 HOWORTH DAVID H 40 - 49 2201 12:44:16 12.74
5968 713 HOFELSAUER THOMAS H 40 - 49 2202 12:45:06 13.02
5969 5109 SCHOONENS BJORN H 30 - 39 1650 12:45:42 12.77
5970 4357 DE WIT TIM H 30 - 39 1651 12:46:05 12.79
5971 1786 NOLTE ERNST H 40 - 49 2203 12:46:06 12.66
5972 3723 REILEV FLEMMING H 60 - 66 235 12:46:22 12.89
5973 4076 VERMEIR BENOIT H 40 - 49 2204 12:47:03 12.88
5974 3998 DALKVIST MIKKEL H 18 - 29 548 12:47:06 12.90
5975 6621 GIRVAN KENNETH H 40 - 49 2205 12:48:15 12.92
5976 515 VINCENT TIM H 50 - 59 1088 12:48:40 12.85
5977 4714 VIERSMA MERLIJN H 30 - 39 1652 12:48:49 12.74
5978 6559 RASMUSSEN PER H 40 - 49 2206 12:48:57 12.96
5979 6953 DE LATTER BERTEN H 50 - 59 1089 12:49:05 12.90
5980 4163 BUYCK WOUTER H 40 - 49 2207 12:49:41 12.78
5981 3343 GIOVANNI HEATHER F 35 - 49 109 12:49:46 12.47
5982 3344 SHELDON DAVID H 40 - 49 2208 12:49:49 12.47
5983 7110 PEYRE SEBASTIEN H 30 - 39 1653 12:50:18 12.73
5984 4000 OBEL HENRIK H 40 - 49 2209 12:51:05 12.83
5985 7825 DREW THOMAS H 40 - 49 2210 12:51:47 12.73
5986 4531 TRONCA PIETRO H 60 - 66 236 12:52:40 12.78
5987 7789 ANDERSEN SOEREN H 50 - 59 1090 12:53:01 12.85
5988 3064 SLUITER ANNEKE F 18 - 34 60 12:53:15 12.44
5989 2830 VAN DER SANDE JOHAN H 40 - 49 2211 12:53:57 12.76
5990 3816 THUESEN HENRIK H 50 - 59 1091 12:54:16 12.57
5991 6253 Nielsen Morten Myrhoj Monrad H 18 - 29 549 12:55:31 12.73
5992 4564 MARTINELLI RICCARDO H 50 - 59 1092 12:55:32 12.80
5993 524 KRANENDONK MARTIN H 40 - 49 2212 12:55:33 12.79
5994 7057 CHABLI ALEXANDRE H 40 - 49 2213 12:56:01 12.79
5995 5307 PILLE BORIS H 40 - 49 2214 12:58:23 12.74
5996 2158 MAY KENTON H 40 - 49 2215 13:00:09 12.88
5997 3856 TROELSEN PETER H 40 - 49 2216 13:02:36 12.39
5998 703 NIELSEN LEON H 50 - 59 1093 13:03:51 12.61
5999 525 VAN Der HORST Michel H 40 - 49 2217 13:03:56 12.51
6000 3585 RAMSAY COLIN H 40 - 49 2218 13:04:14 12.42
6001 5867 FLOREK BARBARA F 18 - 34 61 13:04:19 12.73
6002 6732 GALE KEN H 40 - 49 2219 13:04:34 12.65
6003 633 MANCA MARCO H 40 - 49 2220 13:04:36 12.49
6004 3225 VANDECASTEELE RUBEN H 30 - 39 1654 13:05:50 12.42
6005 2579 SLOTBOOM VINCENT H 40 - 49 2221 13:06:50 12.38
6006 3644 PRIEST DAVE H 40 - 49 2222 13:07:01 12.46
6007 4481 VERBEECK DAVID H 40 - 49 2223 13:11:04 12.79
6008 2455 TUTUSAUS I Monroig Roger H 40 - 49 2224 13:12:42 12.37
6009 3159 DE KWAASTENIET BART H 30 - 39 1655 13:13:26 12.46
6010 3042 VAN DONGEN DIANA F 18 - 34 62 13:13:47 12.40
6011 3339 CLARK DIANA F 35 - 49 110 13:14:16 12.42
6012 4519 COLOMBO ANGELO H 50 - 59 1094 13:15:18 12.72
6013 4532 PANIGONI RAUL H 40 - 49 2225 13:15:19 12.72
6014 601 DRIELINGER PATRICK H 30 - 39 1656 13:17:43 12.10
6015 2117 MORVAN JEAN H 60 - 66 237 13:18:02 12.38
6016 3034 WENDKER RICK H 30 - 39 1657 13:18:12 12.38
6017 3060 FLIERMAN ROELOF H 30 - 39 1658 13:19:28 12.41
6018 3423 POWER ERIC H 40 - 49 2226 13:21:01 12.38
6019 3040 PUNT ARNAUD H 30 - 39 1659 13:23:12 12.38
6020 2722 WINKELMANN ERIK H 40 - 49 2227 13:24:40 12.45
6021 683 Christensen Michael Vang H 50 - 59 1095 13:25:41 12.19
6022 3020 SCHELLINgerhout Gerwin H 40 - 49 2228 13:25:49 12.40
6023 3196 MISSINNE MARIJN H 18 - 29 550 13:27:50 12.37
6024 3000 VAN ENGELEN LUC H 40 - 49 2229 13:35:37 12.10
6025 3218 VAN DE VREKEN Bjorn H 30 - 39 1660 13:39:18 12.36
6026 3161 BAILLIUS BRUNO H 50 - 59 1096 13:39:19 12.36
6027 1293 ANNEN JEAN-CLAUDE H 60 - 66 238 13:42:39 12.08
6028 1282 BEYELER OLIVIER H 40 - 49 2230 13:46:08 12.04
6029 6562 DELORME ROGER H 60 - 66 239 13:46:24 12.01
6030 495 WYCKMANS FERRE H 60 - 66 240 13:47:13 12.03
6031 1577 THOMAS GASTON H 60 - 66 241 13:55:14 12.02
6032 822 SOERENSEN STEEN Buhl H 40 - 49 2231 13:56:05 12.05
6033 1098 NICOLE LAURENT H 40 - 49 2232 13:56:42 12.04
6034 938 SPRUYT IGNACE H 40 - 49 2233 13:59:07 12.06
6035 9902 TEISSERENC MARC H 50 - 59 1097 14:04:25 12.00
6036 997 BOLLE JEAN-PASCAL H 30 - 39 1661 14:09:53 12.05
6037 649 ARENDS SANDER H 30 - 39 1662 14:12:32 12.03

Retour -> 06*- Les derniers résultats

Na górę 









Na górę  
 Strefa prywatna   Prawa autorskie-Copyright: Ciśnijcie tu żeby przeczytać!